Freedom, Oklahoma
Current Conditions -  °F | °C
As of 5:50 PM on Saturday 22 Nov 2014 (Local Time) from KAVK Reporting Station
Broken Clouds Broken Clouds  
Wind Chill: 57°   Ceiling: 3500
Heat Index: 57°   Visibility: 10mi
Dew Point: 54°   Wind: 21mph
Humidity: 88%   Direction: 200°SSW
Pressure: 29.72"   Gusts: 26mph
Location:  36.77°N, 99.11°W
Report Text: KAVK 222350Z AUTO 20018G23KT 10SM FEW018 BKN035 14/12 A2972 RMK AO2
Loading
Personal Weather Stations






























Interactive Weather Map New forecast layout! Learn more

10-Day Weather Forecast

Advertisements
Track Severe Weather on mobile